createdAt,value
2022-11-20T00:01:30.418Z,95963.38
2022-11-20T00:04:02.039Z,95961.44
2022-11-20T00:06:30.369Z,95956.09
2022-11-20T00:08:59.477Z,95961.34
2022-11-20T00:11:28.896Z,95959.72
2022-11-20T00:13:59.079Z,95960.03
2022-11-20T00:16:28.583Z,95958.41
2022-11-20T00:18:56.152Z,95967.63
2022-11-20T00:21:26.542Z,95955.88
2022-11-20T00:23:55.779Z,95961.53
2022-11-20T00:26:25.997Z,95964.50
2022-11-20T00:28:59.476Z,95970.00
2022-11-20T00:31:27.196Z,95968.16
2022-11-20T00:33:54.918Z,95969.66
2022-11-20T00:36:24.511Z,95966.25
2022-11-20T00:38:55.780Z,95965.06
2022-11-20T00:41:23.680Z,95969.66
2022-11-20T00:43:52.626Z,95965.25
2022-11-20T00:46:22.262Z,95965.59
2022-11-20T00:48:49.609Z,95966.63
2022-11-20T00:51:20.609Z,95963.13
2022-11-20T00:53:48.015Z,95961.47
2022-11-20T00:56:17.238Z,95957.63
2022-11-20T00:58:46.506Z,95958.47
2022-11-20T01:01:25.371Z,95958.81
2022-11-20T01:03:55.082Z,95956.88
2022-11-20T01:06:34.174Z,95952.72
2022-11-20T01:09:06.161Z,95956.47
2022-11-20T01:11:36.655Z,95952.59
2022-11-20T01:14:06.826Z,95952.06
2022-11-20T01:16:37.279Z,95948.50
2022-11-20T01:19:07.427Z,95953.28
2022-11-20T01:21:38.127Z,95952.09
2022-11-20T01:24:09.119Z,95948.88
2022-11-20T01:26:39.105Z,95949.47
2022-11-20T01:29:07.013Z,95957.69
2022-11-20T01:31:36.725Z,95952.53
2022-11-20T01:34:06.413Z,95952.41
2022-11-20T01:36:36.827Z,95958.94
2022-11-20T01:39:07.130Z,95961.59
2022-11-20T01:41:54.403Z,95962.34
2022-11-20T01:44:43.734Z,95955.53
2022-11-20T01:47:15.683Z,95961.03
2022-11-20T01:49:50.067Z,95948.72
2022-11-20T01:52:52.141Z,95948.31
2022-11-20T01:55:23.496Z,95951.28
2022-11-20T01:57:51.416Z,95946.56
2022-11-20T02:00:20.674Z,95952.50
2022-11-20T02:03:02.247Z,95952.69
2022-11-20T02:05:40.283Z,95956.41
2022-11-20T02:08:08.316Z,95950.06
2022-11-20T02:10:35.447Z,95954.84
2022-11-20T02:13:21.357Z,95949.84
2022-11-20T02:15:49.125Z,95949.09
2022-11-20T02:18:18.977Z,95946.84
2022-11-20T02:20:49.575Z,95952.84
2022-11-20T02:23:31.255Z,95955.38
2022-11-20T02:25:59.628Z,95955.06
2022-11-20T02:28:27.579Z,95953.88
2022-11-20T02:30:54.729Z,95952.97
2022-11-20T02:33:21.755Z,95954.78
2022-11-20T02:35:51.586Z,95953.16
2022-11-20T02:38:19.295Z,95954.22
2022-11-20T02:40:49.318Z,95950.63
2022-11-20T02:43:18.552Z,95954.97
2022-11-20T02:45:45.633Z,95944.88
2022-11-20T02:48:15.740Z,95953.06
2022-11-20T02:50:42.915Z,95948.03
2022-11-20T02:53:10.064Z,95939.84
2022-11-20T02:55:37.870Z,95948.19
2022-11-20T02:58:04.946Z,95944.63
2022-11-20T03:00:33.129Z,95937.63
2022-11-20T03:03:00.366Z,95941.34
2022-11-20T03:05:27.462Z,95936.31
2022-11-20T03:07:54.578Z,95941.50
2022-11-20T03:10:21.682Z,95941.06
2022-11-20T03:12:48.841Z,95950.16
2022-11-20T03:15:15.995Z,95942.00
2022-11-20T03:17:43.235Z,95943.47
2022-11-20T03:20:11.215Z,95934.22
2022-11-20T03:22:38.353Z,95941.09
2022-11-20T03:25:05.828Z,95936.03
2022-11-20T03:27:34.937Z,95938.25
2022-11-20T03:30:02.516Z,95940.22
2022-11-20T03:32:29.855Z,95943.19
2022-11-20T03:34:56.911Z,95947.34
2022-11-20T03:37:25.167Z,95951.06
2022-11-20T03:39:52.187Z,95940.66
2022-11-20T03:42:37.977Z,95939.47
2022-11-20T03:45:05.787Z,95937.69
2022-11-20T03:47:32.890Z,95933.50
2022-11-20T03:50:00.646Z,95927.28
2022-11-20T03:52:28.639Z,95925.47
2022-11-20T03:54:55.754Z,95925.47
2022-11-20T03:57:23.487Z,95934.84
2022-11-20T03:59:50.542Z,95931.72
2022-11-20T04:02:17.644Z,95941.13
2022-11-20T04:04:44.868Z,95936.19
2022-11-20T04:07:12.101Z,95943.03
2022-11-20T04:09:39.255Z,95939.63
2022-11-20T04:12:06.478Z,95938.00
2022-11-20T04:14:33.657Z,95937.56
2022-11-20T04:17:00.706Z,95945.75
2022-11-20T04:19:27.954Z,95946.94
2022-11-20T04:21:55.956Z,95945.75
2022-11-20T04:24:23.088Z,95948.44
2022-11-20T04:26:50.113Z,95939.03
2022-11-20T04:29:17.186Z,95947.81
2022-11-20T04:31:44.422Z,95945.88
2022-11-20T04:34:12.950Z,95934.69
2022-11-20T04:36:41.056Z,95936.94
2022-11-20T04:39:08.163Z,95933.06
2022-11-20T04:41:37.183Z,95940.66
2022-11-20T04:44:06.636Z,95936.75
2022-11-20T04:46:39.602Z,95941.69
2022-11-20T04:49:07.801Z,95942.44
2022-11-20T04:51:36.623Z,95937.38
2022-11-20T04:54:04.087Z,95937.38
2022-11-20T04:56:31.099Z,95943.50
2022-11-20T04:59:02.676Z,95940.66
2022-11-20T05:01:30.094Z,95934.84
2022-11-20T05:03:58.334Z,95946.31
2022-11-20T05:06:25.624Z,95937.81
2022-11-20T05:08:52.863Z,95939.59
2022-11-20T05:11:21.835Z,95945.25
2022-11-20T05:13:49.878Z,95944.06
2022-11-20T05:16:22.819Z,95940.19
2022-11-20T05:18:51.458Z,95942.88
2022-11-20T05:21:19.641Z,95935.13
2022-11-20T05:23:47.602Z,95936.59
2022-11-20T05:26:22.775Z,95936.91
2022-11-20T05:28:53.385Z,95927.19
2022-11-20T05:31:27.261Z,95928.53
2022-11-20T05:33:58.395Z,95931.50
2022-11-20T05:36:26.888Z,95937.16
2022-11-20T05:38:59.766Z,95930.13
2022-11-20T05:41:28.968Z,95929.69
2022-11-20T05:43:57.493Z,95939.53
2022-11-20T05:46:28.226Z,95935.19
2022-11-20T05:48:58.260Z,95935.94
2022-11-20T05:51:26.971Z,95931.31
2022-11-20T05:53:54.116Z,95927.72
2022-11-20T05:56:22.467Z,95928.47
2022-11-20T05:58:50.327Z,95930.72
2022-11-20T06:01:21.292Z,95937.09
2022-11-20T06:03:52.040Z,95935.16
2022-11-20T06:06:20.656Z,95945.78
2022-11-20T06:08:48.943Z,95940.41
2022-11-20T06:11:17.209Z,95941.88
2022-11-20T06:13:45.205Z,95939.47
2022-11-20T06:16:15.427Z,95938.28
2022-11-20T06:18:46.536Z,95942.75
2022-11-20T06:21:16.497Z,95937.66
2022-11-20T06:23:43.873Z,95943.78
2022-11-20T06:26:20.764Z,95935.25
2022-11-20T06:28:48.300Z,95936.00
2022-11-20T06:31:17.950Z,95932.13
2022-11-20T06:33:45.665Z,95935.13
2022-11-20T06:36:15.073Z,95937.34
2022-11-20T06:38:42.473Z,95934.19
2022-11-20T06:41:15.212Z,95941.06
2022-11-20T06:43:43.046Z,95935.25
2022-11-20T06:46:12.132Z,95938.69
2022-11-20T06:48:39.786Z,95948.97
2022-11-20T06:51:08.585Z,95948.22
2022-11-20T06:53:36.866Z,95950.44
2022-11-20T06:56:04.751Z,95956.13
2022-11-20T06:58:34.157Z,95954.94
2022-11-20T07:01:03.150Z,95953.44
2022-11-20T07:03:30.294Z,95958.34
2022-11-20T07:05:58.522Z,95952.53
2022-11-20T07:08:27.106Z,95958.63
2022-11-20T07:10:57.895Z,95959.69
2022-11-20T07:13:25.042Z,95965.34
2022-11-20T07:15:52.185Z,95974.91
2022-11-20T07:18:19.205Z,95962.66
2022-11-20T07:20:46.394Z,95969.06
2022-11-20T07:23:13.436Z,95965.16
2022-11-20T07:25:40.580Z,95972.50
2022-11-20T07:28:07.617Z,95970.53
2022-11-20T07:30:34.845Z,95964.28
2022-11-20T07:33:01.884Z,95968.91
2022-11-20T07:35:29.137Z,95973.84
2022-11-20T07:37:56.156Z,95974.56
2022-11-20T07:40:23.411Z,95981.41
2022-11-20T07:42:53.989Z,95986.66
2022-11-20T07:45:24.674Z,95985.16
2022-11-20T07:47:52.534Z,95993.53
2022-11-20T07:50:20.873Z,95997.22
2022-11-20T07:52:48.261Z,96002.16
2022-11-20T07:55:16.383Z,95992.91
2022-11-20T07:57:43.838Z,95997.81
2022-11-20T08:00:12.568Z,95993.94
2022-11-20T08:02:42.736Z,95998.09
2022-11-20T08:05:11.804Z,96001.09
2022-11-20T08:07:43.518Z,95999.13
2022-11-20T08:10:14.063Z,96003.63
2022-11-20T08:13:12.875Z,96002.41
2022-11-20T08:15:41.812Z,96011.94
2022-11-20T08:21:05.690Z,96017.94
2022-11-20T08:23:33.118Z,96028.22
2022-11-20T08:26:02.332Z,96032.41
2022-11-20T08:28:30.205Z,96033.16
2022-11-20T08:31:02.005Z,96026.56
2022-11-20T08:33:29.870Z,96030.28
2022-11-20T08:36:06.740Z,96033.72
2022-11-20T08:38:34.273Z,96035.97
2022-11-20T08:41:22.599Z,96035.22
2022-11-20T08:43:50.057Z,96035.03
2022-11-20T08:46:17.722Z,96043.09
2022-11-20T08:48:46.368Z,96043.84
2022-11-20T08:51:15.188Z,96041.47
2022-11-20T08:53:45.459Z,96042.50
2022-11-20T08:56:13.068Z,96045.19
2022-11-20T08:59:09.830Z,96050.84
2022-11-20T09:01:29.451Z,96053.84
2022-11-20T09:04:01.052Z,96056.53
2022-11-20T09:06:28.418Z,96055.34
2022-11-20T09:09:02.073Z,96061.75
2022-11-20T09:11:32.926Z,96062.19
2022-11-20T09:14:01.278Z,96059.81
2022-11-20T09:16:28.491Z,96068.19
2022-11-20T09:19:13.498Z,96066.94
2022-11-20T09:21:43.284Z,96053.97
2022-11-20T09:24:10.685Z,96061.88
2022-11-20T09:26:37.926Z,96059.19
2022-11-20T09:29:05.637Z,96065.75
2022-11-20T09:31:35.467Z,96053.78
2022-11-20T09:34:02.697Z,96054.25
2022-11-20T09:36:29.952Z,96057.41
2022-11-20T09:38:58.094Z,96045.91
2022-11-20T09:41:57.513Z,96049.34
2022-11-20T09:45:01.319Z,96058.88
2022-11-20T09:47:47.584Z,96061.56
2022-11-20T09:50:17.308Z,96061.13
2022-11-20T09:53:09.099Z,96061.88
2022-11-20T09:55:38.572Z,96065.56
2022-11-20T09:58:18.476Z,96069.50
2022-11-20T10:00:46.016Z,96066.31
2022-11-20T10:03:28.012Z,96073.19
2022-11-20T10:05:56.801Z,96063.94
2022-11-20T10:08:38.071Z,96068.38
2022-11-20T10:11:17.203Z,96064.50
2022-11-20T10:14:19.979Z,96073.63
2022-11-20T10:17:23.079Z,96071.94
2022-11-20T10:20:07.986Z,96058.34
2022-11-20T10:23:08.448Z,96062.97
2022-11-20T10:25:41.907Z,96059.81
2022-11-20T10:28:20.914Z,96055.19
2022-11-20T10:30:59.455Z,96051.28
2022-11-20T10:33:50.173Z,96056.22
2022-11-20T10:36:29.454Z,96050.66
2022-11-20T10:39:08.209Z,96045.09
2022-11-20T10:41:43.434Z,96046.78
2022-11-20T10:44:40.417Z,96046.31
2022-11-20T10:47:18.774Z,96040.47
2022-11-20T10:49:59.046Z,96030.63
2022-11-20T10:52:50.283Z,96032.84
2022-11-20T10:55:35.848Z,96027.94
2022-11-20T10:58:35.574Z,96032.13
2022-11-20T11:01:24.624Z,96031.38
2022-11-20T11:03:56.674Z,96025.25
2022-11-20T11:06:34.882Z,96027.94
2022-11-20T11:09:10.363Z,96021.50
2022-11-20T11:11:39.704Z,96014.34
2022-11-20T11:14:14.541Z,96007.47
2022-11-20T11:16:58.836Z,95994.75
2022-11-20T11:19:26.364Z,96003.88
2022-11-20T11:21:57.827Z,96008.22
2022-11-20T11:24:42.353Z,95997.00
2022-11-20T11:27:19.282Z,96002.66
2022-11-20T11:29:47.729Z,95976.78
2022-11-20T11:32:22.934Z,95985.34
2022-11-20T11:35:08.698Z,95982.81
2022-11-20T11:37:38.629Z,95971.19
2022-11-20T11:40:24.576Z,95982.06
2022-11-20T11:42:57.838Z,95991.75
2022-11-20T11:45:25.072Z,95974.56
2022-11-20T11:47:53.570Z,95987.66
2022-11-20T11:50:24.287Z,95997.31
2022-11-20T11:53:11.331Z,95999.25
2022-11-20T11:56:12.505Z,95989.88
2022-11-20T11:58:47.882Z,95991.91
2022-11-20T12:01:39.044Z,95979.03
2022-11-20T12:04:43.394Z,95975.84
2022-11-20T12:08:09.494Z,95969.81
2022-11-20T12:10:42.820Z,95956.44
2022-11-20T12:13:27.503Z,95966.09
2022-11-20T12:15:54.787Z,95952.53
2022-11-20T12:18:23.887Z,95942.50
2022-11-20T12:21:21.419Z,95943.97
2022-11-20T12:24:00.516Z,95949.09
2022-11-20T12:26:49.646Z,95948.72
2022-11-20T12:29:25.587Z,95929.59
2022-11-20T12:32:20.733Z,95940.63
2022-11-20T12:34:59.632Z,95938.69
2022-11-20T12:37:29.241Z,95934.34
2022-11-20T12:40:37.385Z,95931.16
2022-11-20T12:43:38.956Z,95913.13
2022-11-20T12:46:33.834Z,95915.56
2022-11-20T12:49:34.697Z,95906.28
2022-11-20T12:52:24.665Z,95905.34
2022-11-20T12:55:08.876Z,95890.38
2022-11-20T12:58:03.714Z,95880.63
2022-11-20T13:00:33.015Z,95879.16
2022-11-20T13:03:50.191Z,95878.94
2022-11-20T13:06:19.702Z,95863.06
2022-11-20T13:08:54.944Z,95866.03
2022-11-20T13:11:59.658Z,95851.34
2022-11-20T13:14:38.988Z,95849.69
2022-11-20T13:17:23.168Z,95845.41
2022-11-20T13:19:59.948Z,95837.59
2022-11-20T13:22:53.051Z,95817.44
2022-11-20T13:25:31.595Z,95813.25
2022-11-20T13:28:01.448Z,95809.44
2022-11-20T13:30:30.666Z,95798.00
2022-11-20T13:33:08.066Z,95787.34
2022-11-20T13:35:43.295Z,95774.63
2022-11-20T13:38:15.924Z,95782.25
2022-11-20T13:40:56.734Z,95755.22
2022-11-20T13:43:38.225Z,95744.16
2022-11-20T13:46:08.282Z,95747.81
2022-11-20T13:48:41.534Z,95744.16
2022-11-20T13:51:36.281Z,95737.19
2022-11-20T13:54:06.157Z,95739.72
2022-11-20T13:56:52.210Z,95726.16
2022-11-20T13:59:36.094Z,95726.38
2022-11-20T14:02:04.447Z,95715.31
2022-11-20T14:04:36.369Z,95719.34
2022-11-20T14:07:07.964Z,95720.84
2022-11-20T14:09:35.434Z,95716.66
2022-11-20T14:12:04.949Z,95714.97
2022-11-20T14:14:34.752Z,95704.78
2022-11-20T14:17:22.136Z,95710.91
2022-11-20T14:19:51.747Z,95702.00
2022-11-20T14:22:24.991Z,95707.38
2022-11-20T14:25:07.137Z,95705.09
2022-11-20T14:27:38.914Z,95697.00
2022-11-20T14:30:07.951Z,95692.84
2022-11-20T14:32:36.800Z,95677.16
2022-11-20T14:35:11.166Z,95673.16
2022-11-20T14:38:34.288Z,95671.88
2022-11-20T14:41:26.618Z,95670.59
2022-11-20T14:44:01.030Z,95668.09
2022-11-20T14:46:29.349Z,95656.03
2022-11-20T14:49:02.104Z,95662.34
2022-11-20T14:51:44.212Z,95657.91
2022-11-20T14:54:12.692Z,95658.38
2022-11-20T14:56:41.014Z,95658.81
2022-11-20T14:59:11.477Z,95654.66
2022-11-20T15:01:39.168Z,95654.84
2022-11-20T15:04:09.116Z,95659.94
2022-11-20T15:06:37.558Z,95647.44
2022-11-20T15:09:15.769Z,95655.97
2022-11-20T15:11:55.975Z,95651.06
2022-11-20T15:14:25.366Z,95648.84
2022-11-20T15:16:53.846Z,95651.97
2022-11-20T15:19:25.726Z,95653.94
2022-11-20T15:21:52.955Z,95651.72
2022-11-20T15:24:20.430Z,95642.91
2022-11-20T15:26:47.704Z,95650.97
2022-11-20T15:29:23.005Z,95648.47
2022-11-20T15:31:52.191Z,95641.34
2022-11-20T15:34:19.581Z,95642.28
2022-11-20T15:36:46.737Z,95648.09
2022-11-20T15:39:13.890Z,95644.69
2022-11-20T15:41:41.307Z,95643.63
2022-11-20T15:44:08.745Z,95636.81
2022-11-20T15:46:41.386Z,95621.88
2022-11-20T15:49:15.948Z,95626.03
2022-11-20T15:51:47.541Z,95633.09
2022-11-20T15:54:19.466Z,95631.59
2022-11-20T15:56:48.340Z,95619.34
2022-11-20T15:59:19.035Z,95622.53
2022-11-20T16:01:46.509Z,95621.03
2022-11-20T16:04:16.462Z,95616.41
2022-11-20T16:06:44.095Z,95606.56
2022-11-20T16:09:11.950Z,95597.50
2022-11-20T16:11:39.707Z,95603.31
2022-11-20T16:14:26.855Z,95603.06
2022-11-20T16:16:54.298Z,95586.19
2022-11-20T16:19:21.967Z,95581.72
2022-11-20T16:21:49.428Z,95583.22
2022-11-20T16:24:17.602Z,95573.66
2022-11-20T16:26:44.939Z,95567.72
2022-11-20T16:29:12.708Z,95563.56
2022-11-20T16:31:40.725Z,95555.22
2022-11-20T16:34:23.423Z,95554.50
2022-11-20T16:36:50.786Z,95560.03
2022-11-20T16:39:23.322Z,95552.72
2022-11-20T16:41:51.315Z,95563.22
2022-11-20T16:44:18.964Z,95551.72
2022-11-20T16:46:46.361Z,95554.13
2022-11-20T16:49:17.882Z,95537.44
2022-11-20T16:51:45.510Z,95542.38
2022-11-20T16:54:16.362Z,95545.22
2022-11-20T16:56:48.723Z,95547.66
2022-11-20T16:59:16.903Z,95535.88
2022-11-20T17:01:44.377Z,95553.94
2022-11-20T17:04:11.683Z,95540.22
2022-11-20T17:06:44.406Z,95551.72
2022-11-20T17:09:13.044Z,95543.56
2022-11-20T17:11:40.254Z,95542.09
2022-11-20T17:14:07.793Z,95544.47
2022-11-20T17:16:37.012Z,95543.75
2022-11-20T17:19:05.602Z,95530.50
2022-11-20T17:21:36.364Z,95547.06
2022-11-20T17:24:05.629Z,95546.06
2022-11-20T17:26:33.549Z,95535.22
2022-11-20T17:29:24.383Z,95544.19
2022-11-20T17:31:51.934Z,95544.66
2022-11-20T17:34:19.039Z,95549.31
2022-11-20T17:36:46.783Z,95555.56
2022-11-20T17:39:15.646Z,95557.72
2022-11-20T17:41:42.870Z,95550.41
2022-11-20T17:44:11.911Z,95554.91
2022-11-20T17:46:39.262Z,95560.78
2022-11-20T17:49:06.606Z,95560.47
2022-11-20T17:51:35.460Z,95556.31
2022-11-20T17:54:05.013Z,95561.88
2022-11-20T17:56:52.719Z,95558.88
2022-11-20T17:59:20.223Z,95571.75
2022-11-20T18:01:47.654Z,95573.28
2022-11-20T18:04:15.114Z,95558.75
2022-11-20T18:06:43.291Z,95562.38
2022-11-20T18:09:10.944Z,95558.63
2022-11-20T18:11:42.625Z,95555.97
2022-11-20T18:14:32.873Z,95571.31
2022-11-20T18:17:05.074Z,95560.03
2022-11-20T18:19:40.275Z,95563.63
2022-11-20T18:22:13.185Z,95564.81
2022-11-20T18:24:40.964Z,95558.88
2022-11-20T18:27:15.614Z,95562.28
2022-11-20T18:29:42.893Z,95558.78
2022-11-20T18:32:09.943Z,95553.22
2022-11-20T18:34:37.134Z,95554.59
2022-11-20T18:37:04.328Z,95549.69
2022-11-20T18:39:31.528Z,95555.81
2022-11-20T18:42:17.441Z,95559.97
2022-11-20T18:44:56.767Z,95548.06
2022-11-20T18:47:28.001Z,95557.28
2022-11-20T18:49:57.599Z,95551.19
2022-11-20T18:52:36.153Z,95546.81
2022-11-20T18:55:05.422Z,95553.22
2022-11-20T18:57:33.479Z,95560.53
2022-11-20T19:00:06.395Z,95565.91
2022-11-20T19:02:41.008Z,95566.91
2022-11-20T19:05:11.830Z,95566.19
2022-11-20T19:07:39.230Z,95549.63
2022-11-20T19:10:07.220Z,95559.16
2022-11-20T19:12:35.366Z,95566.75
2022-11-20T19:15:02.663Z,95562.41
2022-11-20T19:17:30.000Z,95567.78
2022-11-20T19:19:57.292Z,95556.59
2022-11-20T19:22:27.880Z,95565.09
2022-11-20T19:24:56.192Z,95559.28
2022-11-20T19:27:24.540Z,95559.28
2022-11-20T19:29:59.005Z,95548.53
2022-11-20T19:32:26.361Z,95557.34
2022-11-20T19:34:53.658Z,95566.88
2022-11-20T19:37:20.922Z,95554.94
2022-11-20T19:39:48.623Z,95557.34
2022-11-20T19:42:16.441Z,95559.84
2022-11-20T19:44:43.600Z,95576.22
2022-11-20T19:47:14.449Z,95587.72
2022-11-20T19:49:42.450Z,95588.72
2022-11-20T19:52:10.061Z,95589.75
2022-11-20T19:54:37.319Z,95596.63
2022-11-20T19:57:04.519Z,95596.88
2022-11-20T19:59:32.929Z,95590.31
2022-11-20T20:02:02.273Z,95599.41
2022-11-20T20:04:29.688Z,95600.88
2022-11-20T20:06:56.932Z,95604.03
2022-11-20T20:09:26.785Z,95600.44
2022-11-20T20:11:57.351Z,95597.75
2022-11-20T20:14:25.055Z,95603.84
2022-11-20T20:16:52.711Z,95591.94
2022-11-20T20:19:19.956Z,95590.00
2022-11-20T20:21:48.383Z,95607.59
2022-11-20T20:24:15.843Z,95595.34
2022-11-20T20:26:43.484Z,95601.91
2022-11-20T20:29:11.147Z,95602.22
2022-11-20T20:31:38.441Z,95600.72
2022-11-20T20:34:06.249Z,95611.72
2022-11-20T20:36:33.817Z,95607.59
2022-11-20T20:39:03.719Z,95616.34
2022-11-20T20:41:31.342Z,95618.31
2022-11-20T20:44:17.611Z,95619.78
2022-11-20T20:46:44.837Z,95627.09
2022-11-20T20:49:13.273Z,95619.50
2022-11-20T20:51:40.460Z,95606.25
2022-11-20T20:54:07.831Z,95607.91
2022-11-20T20:56:35.228Z,95610.31
2022-11-20T20:59:04.375Z,95620.47
2022-11-20T21:01:31.715Z,95619.91
2022-11-20T21:04:00.199Z,95625.00
2022-11-20T21:06:27.554Z,95630.53
2022-11-20T21:08:57.512Z,95636.34
2022-11-20T21:11:25.098Z,95637.41
2022-11-20T21:13:52.626Z,95626.19
2022-11-20T21:16:22.589Z,95627.69
2022-11-20T21:18:50.083Z,95616.03
2022-11-20T21:21:36.685Z,95621.69
2022-11-20T21:24:04.369Z,95620.78
2022-11-20T21:26:31.884Z,95625.66
2022-11-20T21:29:00.223Z,95625.97
2022-11-20T21:31:28.716Z,95618.94
2022-11-20T21:33:57.082Z,95611.16
2022-11-20T21:36:26.949Z,95625.63
2022-11-20T21:38:58.955Z,95631.28
2022-11-20T21:41:30.549Z,95614.25
2022-11-20T21:44:41.020Z,95619.44
2022-11-20T21:46:46.838Z,95617.78
2022-11-20T21:49:15.482Z,95625.38
2022-11-20T21:51:43.885Z,95619.09
2022-11-20T21:54:12.006Z,95615.19
2022-11-20T21:56:39.931Z,95612.06
2022-11-20T21:59:07.189Z,95605.50
2022-11-20T22:01:35.179Z,95618.72
2022-11-20T22:04:03.312Z,95614.56
2022-11-20T22:06:33.849Z,95608.00
2022-11-20T22:09:02.385Z,95611.41
2022-11-20T22:11:30.032Z,95617.53
2022-11-20T22:14:16.156Z,95609.78
2022-11-20T22:16:43.551Z,95616.91
2022-11-20T22:19:10.811Z,95615.41
2022-11-20T22:21:40.985Z,95609.59
2022-11-20T22:24:12.330Z,95609.88
2022-11-20T22:26:40.657Z,95614.50
2022-11-20T22:29:12.388Z,95611.81
2022-11-20T22:31:39.478Z,95622.81
2022-11-20T22:34:06.698Z,95616.25
2022-11-20T22:36:37.260Z,95612.09
2022-11-20T22:39:05.522Z,95625.06
2022-11-20T22:41:33.241Z,95616.56
2022-11-20T22:44:06.020Z,95609.69
2022-11-20T22:46:35.878Z,95623.41
2022-11-20T22:49:11.543Z,95623.88
2022-11-20T22:51:40.776Z,95620.72
2022-11-20T22:54:13.632Z,95619.78
2022-11-20T22:56:41.433Z,95612.19
2022-11-20T22:59:08.931Z,95621.44
2022-11-20T23:01:37.208Z,95620.25
2022-11-20T23:04:09.933Z,95611.19
2022-11-20T23:06:37.194Z,95611.19
2022-11-20T23:09:08.151Z,95613.88
2022-11-20T23:11:36.573Z,95620.72
2022-11-20T23:14:07.371Z,95608.75
2022-11-20T23:16:35.165Z,95609.97
2022-11-20T23:19:06.213Z,95614.59
2022-11-20T23:21:34.828Z,95608.75
2022-11-20T23:24:03.152Z,95622.47
2022-11-20T23:26:40.499Z,95610.25
2022-11-20T23:29:08.355Z,95614.41
2022-11-20T23:31:35.913Z,95610.25
2022-11-20T23:34:03.902Z,95618.31
2022-11-20T23:36:31.506Z,95614.41
2022-11-20T23:38:58.628Z,95611.44
2022-11-20T23:41:25.739Z,95616.66
2022-11-20T23:43:54.317Z,95621.28
2022-11-20T23:46:21.460Z,95615.34
2022-11-20T23:48:48.597Z,95619.97
2022-11-20T23:51:15.724Z,95621.91
2022-11-20T23:53:42.893Z,95611.94
2022-11-20T23:56:11.974Z,95621.91
2022-11-20T23:58:40.342Z,95615.06
